Time;durP1;ratioP1;P1;durP2;ratioP2;P2;SDS_P1;SDS_P2;PMS_P1;PMS_P2;Temp;Humidity;BMP_temperature;BMP_pressure;BME280_temperature;BME280_humidity;BME280_pressure;Samples;Min_cycle;Max_cycle;Signal;HPM_P1;HPM_P2
2022/07/02 00:00:35;;;;;;;3.13;2.80;;;;;;;16.63;82.50;99324.31;5013067;27;104369;-64
2022/07/02 00:03:07;;;;;;;3.05;2.75;;;;;;;16.79;81.53;99327.34;5033755;27;103064;-64
2022/07/02 00:05:47;;;;;;;3.25;2.95;;;;;;;16.77;80.54;99331.13;5033265;27;103497;-64
2022/07/02 00:08:17;;;;;;;4.13;3.03;;;;;;;16.62;81.16;99327.97;5032289;27;103559;-64
2022/07/02 00:10:47;;;;;;;3.47;2.90;;;;;;;16.71;80.54;99318.31;5029864;27;103317;-64
2022/07/02 00:13:16;;;;;;;3.03;2.70;;;;;;;16.65;81.60;99319.69;5031201;27;103171;-64
2022/07/02 00:15:44;;;;;;;2.72;2.42;;;;;;;16.76;80.20;99319.59;5033332;27;104077;-64
2022/07/02 00:18:13;;;;;;;3.50;2.90;;;;;;;16.78;79.87;99323.00;5026873;27;103701;-64
2022/07/02 00:20:43;;;;;;;3.23;2.60;;;;;;;16.77;79.42;99331.13;5029272;27;103052;-64
2022/07/02 00:23:13;;;;;;;3.53;3.03;;;;;;;16.73;78.92;99330.53;5030381;27;102626;-64
2022/07/02 00:25:42;;;;;;;4.15;3.35;;;;;;;16.42;80.58;99328.81;5027856;27;103515;-64
2022/07/02 00:28:16;;;;;;;3.80;3.20;;;;;;;16.09;83.01;99337.03;5029251;27;103891;-64
2022/07/02 00:30:47;;;;;;;3.73;3.43;;;;;;;15.84;84.39;99326.75;5010576;27;103440;-64
2022/07/02 00:33:16;;;;;;;3.90;3.33;;;;;;;15.80;85.66;99331.50;5014351;27;103055;-64
2022/07/02 00:35:44;;;;;;;3.85;2.78;;;;;;;15.99;84.69;99322.81;5049650;27;104109;-64
2022/07/02 00:38:12;;;;;;;2.92;2.65;;;;;;;16.09;83.90;99329.88;5027525;27;103997;-65
2022/07/02 00:40:41;;;;;;;2.63;2.43;;;;;;;16.22;82.47;99329.69;5034024;27;103162;-64
2022/07/02 00:43:10;;;;;;;2.63;2.42;;;;;;;16.35;81.67;99333.00;5027540;27;102708;-65
2022/07/02 00:45:39;;;;;;;3.97;3.17;;;;;;;16.35;80.94;99333.00;5029377;27;103594;-64
2022/07/02 00:48:08;;;;;;;3.77;2.77;;;;;;;16.28;81.32;99326.47;5029136;27;104101;-64
2022/07/02 00:50:36;;;;;;;4.00;2.80;;;;;;;16.29;81.58;99333.53;5030350;27;106378;-64
2022/07/02 00:53:03;;;;;;;3.58;3.05;;;;;;;16.22;81.79;99332.38;5031144;27;102697;-65
2022/07/02 00:55:31;;;;;;;4.35;3.30;;;;;;;15.94;83.32;99333.03;5030166;27;102666;-65
2022/07/02 00:58:01;;;;;;;5.13;3.20;;;;;;;15.54;86.98;99336.34;5013342;27;104062;-65
2022/07/02 01:00:29;;;;;;;3.53;3.23;;;;;;;15.83;85.38;99333.06;5028290;27;103355;-65
2022/07/02 01:03:00;;;;;;;2.80;2.40;;;;;;;16.13;83.24;99333.16;5023506;27;102923;-65
2022/07/02 01:05:29;;;;;;;2.53;2.33;;;;;;;16.26;81.79;99333.78;5035184;27;103811;-65
2022/07/02 01:10:49;;;;;;;3.28;2.45;;;;;;;16.29;80.87;99322.84;5030036;27;103202;-64
2022/07/02 01:13:18;;;;;;;3.03;2.33;;;;;;;16.32;80.13;99311.06;5026723;27;103188;-65
2022/07/02 01:15:46;;;;;;;2.60;2.35;;;;;;;16.31;79.77;99326.22;5026920;27;104042;-65
2022/07/02 01:18:18;;;;;;;2.33;2.10;;;;;;;16.32;79.73;99317.25;5029975;27;103316;-65
2022/07/02 01:20:46;;;;;;;3.20;2.90;;;;;;;16.25;79.37;99310.78;5032448;27;102979;-64
2022/07/02 01:23:15;;;;;;;3.90;2.50;;;;;;;16.01;80.66;99312.84;5015294;27;104259;-65
2022/07/02 01:25:49;;;;;;;3.30;3.00;;;;;;;16.04;80.55;99307.25;5026971;27;102899;-65
2022/07/02 01:28:17;;;;;;;3.10;2.70;;;;;;;16.09;80.38;99321.03;5026836;27;103363;-64
2022/07/02 01:30:46;;;;;;;3.55;2.95;;;;;;;16.06;80.47;99318.63;5014350;27;104082;-65
2022/07/02 01:33:13;;;;;;;3.53;3.10;;;;;;;15.91;81.86;99322.63;5033274;27;102896;-64
2022/07/02 01:35:41;;;;;;;4.45;3.38;;;;;;;15.77;82.24;99309.59;5033753;27;103989;-65
2022/07/02 01:38:09;;;;;;;4.43;3.30;;;;;;;15.66;83.41;99315.84;5033069;27;103279;-64
2022/07/02 01:40:38;;;;;;;4.78;3.55;;;;;;;15.60;83.92;99313.69;5031346;27;103322;-65
2022/07/02 01:43:06;;;;;;;4.07;3.25;;;;;;;15.47;84.86;99313.84;5025664;27;102623;-65
2022/07/02 01:45:34;;;;;;;3.33;3.03;;;;;;;15.56;84.63;99313.09;5034359;27;103022;-65
2022/07/02 01:48:02;;;;;;;4.35;3.78;;;;;;;15.04;87.15;99311.13;5030950;27;104037;-65
2022/07/02 01:50:30;;;;;;;5.03;3.80;;;;;;;15.13;87.80;99308.72;5032746;27;103732;-65
2022/07/02 01:52:58;;;;;;;3.10;2.80;;;;;;;15.35;86.93;99308.66;5034043;27;102772;-65
2022/07/02 01:55:26;;;;;;;4.40;3.67;;;;;;;15.12;86.39;99318.53;5012352;27;103539;-64
2022/07/02 01:57:57;;;;;;;4.50;3.95;;;;;;;15.01;88.01;99310.56;5030157;27;104026;-64
2022/07/02 02:00:25;;;;;;;4.18;3.67;;;;;;;14.60;91.24;99318.31;5015952;27;104184;-65
2022/07/02 02:02:53;;;;;;;4.40;4.00;;;;;;;14.57;92.03;99315.94;5026167;27;102706;-65
2022/07/02 02:05:21;;;;;;;3.95;3.53;;;;;;;14.80;91.00;99320.25;5033584;27;102756;-65
2022/07/02 02:07:48;;;;;;;3.10;2.90;;;;;;;15.13;88.98;99325.50;5032117;27;104360;-64
2022/07/02 02:10:16;;;;;;;3.20;2.50;;;;;;;15.37;86.42;99312.88;5034236;27;103199;-65
2022/07/02 02:12:44;;;;;;;2.72;2.22;;;;;;;15.45;85.26;99321.09;5045251;27;102692;-65
2022/07/02 02:15:13;;;;;;;2.20;2.00;;;;;;;15.58;83.96;99321.78;5033268;27;104067;-65
2022/07/02 02:17:43;;;;;;;1.98;1.77;;;;;;;15.63;82.58;99319.56;5030763;27;104561;-65
2022/07/02 02:20:11;;;;;;;2.38;2.17;;;;;;;15.63;82.02;99316.09;5014230;27;104181;-65
2022/07/02 02:22:39;;;;;;;3.30;2.50;;;;;;;15.50;82.67;99316.25;5022360;27;102722;-65
2022/07/02 02:25:07;;;;;;;2.67;2.47;;;;;;;15.44;83.13;99316.72;5014801;27;102764;-65
2022/07/02 02:27:35;;;;;;;3.13;2.47;;;;;;;15.45;82.88;99310.44;5012855;27;103340;-64
2022/07/02 02:30:04;;;;;;;2.90;2.50;;;;;;;15.43;83.11;99315.03;5030815;27;103203;-65
2022/07/02 02:32:33;;;;;;;2.33;2.13;;;;;;;15.43;83.76;99309.72;5016842;27;102986;-65
2022/07/02 02:35:01;;;;;;;1.87;1.77;;;;;;;15.53;82.74;99307.16;5018611;27;104849;-64
2022/07/02 02:37:29;;;;;;;2.80;2.20;;;;;;;15.62;81.86;99301.94;5036923;27;103001;-65
2022/07/02 02:39:57;;;;;;;1.95;1.85;;;;;;;15.61;81.62;99305.56;5030091;27;103179;-64
2022/07/02 02:42:24;;;;;;;2.10;1.90;;;;;;;15.63;80.97;99311.59;5032558;27;102593;-65
2022/07/02 02:44:52;;;;;;;2.75;2.17;;;;;;;15.68;80.32;99313.03;5038437;27;102709;-65
2022/07/02 02:47:21;;;;;;;2.65;2.45;;;;;;;15.44;80.08;99308.72;5030264;27;103989;-65
2022/07/02 02:49:51;;;;;;;3.60;2.60;;;;;;;15.15;82.96;99318.28;5039598;27;103208;-64
2022/07/02 02:52:19;;;;;;;3.03;2.50;;;;;;;15.16;83.12;99314.63;5032981;27;104070;-64
2022/07/02 02:54:46;;;;;;;3.42;2.53;;;;;;;15.15;82.88;99312.97;5032848;27;104391;-65
2022/07/02 02:57:17;;;;;;;2.85;2.35;;;;;;;15.14;83.38;99311.25;5032572;27;103258;-65
2022/07/02 02:59:44;;;;;;;3.05;2.58;;;;;;;15.02;83.63;99320.22;5009264;27;104094;-65
2022/07/02 03:02:12;;;;;;;3.90;2.58;;;;;;;14.91;84.39;99314.91;5029082;27;102710;-65
2022/07/02 03:04:40;;;;;;;3.25;2.50;;;;;;;14.64;86.83;99319.78;5031909;27;104096;-65
2022/07/02 03:07:10;;;;;;;2.60;2.40;;;;;;;14.55;87.96;99317.84;5029687;27;103775;-65
2022/07/02 03:09:38;;;;;;;4.82;3.10;;;;;;;14.39;88.43;99320.88;5031454;27;103310;-65
2022/07/02 03:12:07;;;;;;;6.57;3.28;;;;;;;14.20;89.90;99313.47;5018705;27;102980;-65
2022/07/02 03:14:35;;;;;;;5.13;3.65;;;;;;;14.24;90.93;99314.91;5031559;27;103727;-65
2022/07/02 03:17:03;;;;;;;5.35;3.33;;;;;;;14.35;90.00;99312.28;5034009;27;103037;-65
2022/07/02 03:19:31;;;;;;;5.53;3.40;;;;;;;14.32;89.62;99317.84;5030002;27;103420;-67
2022/07/02 03:21:58;;;;;;;4.80;3.80;;;;;;;14.06;91.90;99321.66;5031846;27;102705;-68
2022/07/02 03:24:28;;;;;;;4.23;3.63;;;;;;;14.00;94.49;99314.16;5029095;27;103041;-67
2022/07/02 03:26:58;;;;;;;4.22;3.40;;;;;;;13.88;94.24;99317.72;5020332;27;103931;-68
2022/07/02 03:29:25;;;;;;;3.23;2.80;;;;;;;14.27;92.69;99324.44;5007150;27;105687;-67
2022/07/02 03:31:53;;;;;;;3.63;3.03;;;;;;;14.23;90.72;99325.66;5016337;27;102996;-67
2022/07/02 03:34:23;;;;;;;2.83;2.60;;;;;;;14.47;89.61;99329.09;5019778;27;104064;-67
2022/07/02 03:36:51;;;;;;;2.40;2.20;;;;;;;14.77;88.94;99331.13;5029912;27;103459;-67
2022/07/02 03:39:19;;;;;;;2.45;2.25;;;;;;;14.95;87.53;99332.34;5029236;27;103248;-68
2022/07/02 03:41:48;;;;;;;3.42;2.50;;;;;;;15.02;85.07;99333.53;5017103;27;102859;-67
2022/07/02 03:44:17;;;;;;;3.08;2.80;;;;;;;14.96;85.49;99339.38;5033907;27;103877;-68
2022/07/02 03:46:44;;;;;;;3.58;2.75;;;;;;;14.94;84.75;99341.28;5031275;27;104139;-67
2022/07/02 03:49:12;;;;;;;2.78;2.47;;;;;;;14.87;86.09;99345.41;5032099;27;103184;-68
2022/07/02 03:51:40;;;;;;;3.22;2.92;;;;;;;14.64;87.84;99344.56;5027269;27;102629;-68
2022/07/02 03:54:09;;;;;;;4.87;3.00;;;;;;;14.65;88.71;99332.13;5029329;27;102770;-68
2022/07/02 03:56:36;;;;;;;2.67;2.47;;;;;;;14.71;89.05;99336.97;5030134;27;104405;-68
2022/07/02 03:59:06;;;;;;;2.00;1.88;;;;;;;14.97;87.18;99341.03;5032037;27;103174;-68
2022/07/02 04:01:33;;;;;;;2.30;1.60;;;;;;;15.15;85.52;99338.72;5032156;27;102691;-69
2022/07/02 04:04:01;;;;;;;2.33;1.80;;;;;;;15.25;84.02;99343.16;5030155;27;103091;-67
2022/07/02 04:06:29;;;;;;;1.83;1.73;;;;;;;15.30;83.03;99340.97;5029454;27;103915;-67
2022/07/02 04:08:57;;;;;;;2.22;2.03;;;;;;;15.37;82.69;99338.66;5029051;27;103263;-67
2022/07/02 04:11:26;;;;;;;3.47;2.30;;;;;;;15.37;82.94;99339.50;5032171;27;102782;-67
2022/07/02 04:13:53;;;;;;;6.47;2.90;;;;;;;14.93;85.57;99339.59;5013198;27;102804;-67
2022/07/02 04:16:23;;;;;;;2.80;1.98;;;;;;;15.20;86.19;99342.69;5032020;27;102993;-67
2022/07/02 04:18:53;;;;;;;2.00;1.90;;;;;;;15.36;85.18;99345.78;5016380;27;104125;-68
2022/07/02 04:21:39;;;;;;;2.65;1.60;;;;;;;15.52;83.72;99338.25;5029347;27;102611;-68
2022/07/02 04:24:07;;;;;;;1.73;1.63;;;;;;;15.64;82.87;99342.59;5033241;27;104357;-68
2022/07/02 04:26:35;;;;;;;2.00;1.58;;;;;;;15.72;82.30;99343.78;5018657;27;103286;-68
2022/07/02 04:29:03;;;;;;;2.08;1.80;;;;;;;15.80;81.77;99343.97;5028481;27;103193;-68
2022/07/02 04:31:33;;;;;;;3.13;1.70;;;;;;;15.86;81.19;99340.81;5011702;27;103908;-68
2022/07/02 04:34:01;;;;;;;2.22;1.80;;;;;;;15.92;81.66;99340.28;5031038;27;103771;-68
2022/07/02 04:36:29;;;;;;;2.00;1.80;;;;;;;15.98;81.54;99345.94;5028690;27;103693;-68
2022/07/02 04:38:56;;;;;;;1.97;1.60;;;;;;;16.07;81.20;99339.00;5027852;27;103303;-69
2022/07/02 04:41:24;;;;;;;1.90;1.80;;;;;;;16.08;81.31;99348.69;5031663;27;102593;-69
2022/07/02 04:43:52;;;;;;;2.20;1.60;;;;;;;16.12;80.75;99347.44;5033029;27;103991;-70
2022/07/02 04:46:20;;;;;;;2.00;1.67;;;;;;;16.18;80.64;99344.25;5028020;27;103389;-69
2022/07/02 04:48:52;;;;;;;2.03;1.83;;;;;;;16.20;80.34;99350.28;5030592;27;103298;-70
2022/07/02 04:51:20;;;;;;;3.20;2.00;;;;;;;16.21;80.17;99352.00;5015276;27;103553;-69
2022/07/02 04:53:53;;;;;;;3.65;2.08;;;;;;;16.24;80.74;99344.59;5027526;27;103987;-69
2022/07/02 04:56:24;;;;;;;2.03;1.83;;;;;;;16.34;80.52;99349.97;5028483;27;103267;-69
2022/07/02 04:58:52;;;;;;;2.45;1.70;;;;;;;16.41;80.75;99348.47;5029994;27;103829;-69
2022/07/02 05:01:20;;;;;;;3.17;2.13;;;;;;;16.45;81.33;99344.56;5010916;27;102862;-70
2022/07/02 05:03:48;;;;;;;2.00;1.90;;;;;;;16.54;81.56;99354.47;5028226;27;103601;-69
2022/07/02 05:06:17;;;;;;;3.05;2.33;;;;;;;16.48;82.68;99354.97;5031927;27;104217;-72
2022/07/02 05:08:48;;;;;;;2.20;2.00;;;;;;;16.61;83.22;99350.31;5011629;27;104094;-70
2022/07/02 05:11:16;;;;;;;5.10;2.72;;;;;;;16.68;83.06;99350.59;5027892;27;102623;-69
2022/07/02 05:13:44;;;;;;;5.35;3.10;;;;;;;16.39;85.13;99350.44;5014980;27;104078;-69
2022/07/02 05:16:12;;;;;;;3.75;2.42;;;;;;;16.62;84.87;99349.31;5031661;27;104080;-70
2022/07/02 05:18:40;;;;;;;2.40;2.20;;;;;;;16.77;85.03;99353.31;5015484;27;104264;-70
2022/07/02 05:21:07;;;;;;;2.53;2.33;;;;;;;16.90;84.74;99345.06;5028301;27;102692;-70
2022/07/02 05:23:39;;;;;;;2.70;2.50;;;;;;;17.00;84.54;99347.78;5033344;27;103865;-70
2022/07/02 05:26:07;;;;;;;2.10;2.00;;;;;;;17.15;84.11;99346.44;5010894;27;104279;-70
2022/07/02 05:28:35;;;;;;;2.58;2.38;;;;;;;17.19;84.02;99350.50;5031887;27;103246;-70
2022/07/02 05:31:03;;;;;;;3.03;2.67;;;;;;;17.24;84.35;99353.59;5030751;27;102553;-70
2022/07/02 05:33:31;;;;;;;4.30;2.97;;;;;;;17.27;83.92;99353.31;5032867;27;102830;-69
2022/07/02 05:35:59;;;;;;;2.67;2.47;;;;;;;17.40;83.88;99349.41;5027968;27;104070;-70
2022/07/02 05:38:27;;;;;;;2.75;2.55;;;;;;;17.27;85.48;99350.66;5010908;27;103295;-70
2022/07/02 05:40:58;;;;;;;3.60;3.28;;;;;;;16.98;87.77;99357.75;5031206;27;102876;-70
2022/07/02 05:43:26;;;;;;;3.10;2.80;;;;;;;17.37;85.96;99359.56;5031754;27;104076;-70
2022/07/02 05:45:54;;;;;;;3.35;3.05;;;;;;;17.63;84.85;99360.72;5032295;27;103554;-69
2022/07/02 05:48:21;;;;;;;3.40;3.13;;;;;;;17.68;83.32;99357.66;5028777;27;103297;-70
2022/07/02 05:50:49;;;;;;;2.47;2.20;;;;;;;17.86;83.34;99358.63;5026958;27;102611;-69
2022/07/02 05:53:17;;;;;;;3.53;3.00;;;;;;;17.81;83.23;99359.06;5031439;27;102658;-68
2022/07/02 05:55:45;;;;;;;2.92;2.58;;;;;;;17.95;82.44;99355.13;5031316;27;103278;-70
2022/07/02 05:58:14;;;;;;;2.40;2.20;;;;;;;17.95;82.28;99352.44;5011290;27;104106;-70
2022/07/02 06:00:42;;;;;;;3.90;2.80;;;;;;;17.82;82.61;99352.72;5027560;27;102606;-69
2022/07/02 06:03:10;;;;;;;3.40;2.67;;;;;;;18.00;82.53;99363.53;5029028;27;104449;-70
2022/07/02 06:08:23;;;;;;;4.78;2.60;;;;;;;17.72;83.10;99359.03;5027906;27;103149;-72
2022/07/02 06:10:53;;;;;;;2.40;2.20;;;;;;;18.15;82.81;99348.75;5009387;27;102917;-71
2022/07/02 06:13:22;;;;;;;2.80;2.20;;;;;;;18.31;80.78;99345.50;5029326;27;103643;-70
2022/07/02 06:15:50;;;;;;;2.20;1.97;;;;;;;18.23;81.23;99345.38;5032204;27;103318;-75
2022/07/02 06:18:17;;;;;;;2.00;1.80;;;;;;;18.55;80.18;99355.75;5021086;27;103264;-74
2022/07/02 06:20:45;;;;;;;1.77;1.67;;;;;;;18.85;78.41;99351.00;5032297;27;102630;-74
2022/07/02 06:23:13;;;;;;;1.80;1.70;;;;;;;19.01;78.21;99348.50;5015747;27;104091;-76
2022/07/02 06:25:41;;;;;;;1.90;1.70;;;;;;;19.05;77.50;99351.75;5028408;27;103558;-78
2022/07/02 06:28:09;;;;;;;1.50;1.40;;;;;;;19.18;76.49;99351.38;5028787;27;103310;-78
2022/07/02 06:30:38;;;;;;;1.67;1.58;;;;;;;19.32;76.73;99356.25;5035039;27;103748;-77
2022/07/02 06:33:06;;;;;;;2.65;1.58;;;;;;;19.25;76.48;99363.19;5034901;27;102786;-75
2022/07/02 06:35:34;;;;;;;2.00;1.40;;;;;;;19.23;77.11;99352.63;5035219;27;103287;-71
2022/07/02 06:38:01;;;;;;;2.00;1.20;;;;;;;19.40;76.35;99351.00;5014620;27;104139;-70
2022/07/02 06:40:29;;;;;;;2.50;1.50;;;;;;;19.36;76.62;99346.91;5032648;27;102696;-70
2022/07/02 06:42:57;;;;;;;1.30;1.20;;;;;;;19.59;75.70;99342.84;5037648;27;104106;-69
2022/07/02 06:45:25;;;;;;;2.05;1.33;;;;;;;19.66;75.58;99342.09;5035954;27;103936;-70
2022/07/02 06:47:54;;;;;;;1.45;1.20;;;;;;;19.95;74.58;99344.53;5038177;27;103207;-70
2022/07/02 06:50:22;;;;;;;1.77;1.50;;;;;;;19.44;75.07;99347.03;5031035;27;102673;-70
2022/07/02 06:53:00;;;;;;;2.60;1.17;;;;;;;20.04;73.43;99337.41;5033386;27;104076;-70
2022/07/02 06:55:28;;;;;;;1.60;1.27;;;;;;;19.96;74.09;99343.50;5032030;27;103501;-69
2022/07/02 06:57:56;;;;;;;1.17;1.00;;;;;;;20.30;72.91;99345.47;5029919;27;103142;-68
2022/07/02 07:00:23;;;;;;;1.52;1.20;;;;;;;20.41;71.90;99343.38;5029602;27;102551;-68
2022/07/02 07:02:53;;;;;;;1.30;1.20;;;;;;;20.35;72.28;99337.84;5031559;27;103634;-68
2022/07/02 07:05:32;;;;;;;1.73;1.10;;;;;;;20.17;73.19;99346.72;5035836;27;104100;-67
2022/07/02 07:08:01;;;;;;;1.80;1.23;;;;;;;20.37;72.94;99342.03;5032176;27;103388;-67
2022/07/02 07:10:29;;;;;;;1.70;0.90;;;;;;;20.95;70.19;99347.56;5033429;27;104346;-67
2022/07/02 07:12:56;;;;;;;1.23;0.90;;;;;;;21.20;69.78;99346.69;5031980;27;102760;-68
2022/07/02 07:15:24;;;;;;;1.93;1.10;;;;;;;20.88;70.01;99345.69;5027770;27;104192;-67
2022/07/02 07:17:54;;;;;;;0.75;0.73;;;;;;;21.28;68.99;99346.72;5032718;27;104710;-68
2022/07/02 07:20:27;;;;;;;1.25;1.00;;;;;;;21.13;70.25;99351.06;5033113;27;102995;-69
2022/07/02 07:22:54;;;;;;;1.20;0.88;;;;;;;21.44;69.34;99343.25;5034636;27;102671;-70
2022/07/02 07:25:23;;;;;;;1.40;0.90;;;;;;;21.37;68.56;99345.75;5032643;27;103812;-70
2022/07/02 07:27:51;;;;;;;1.73;1.00;;;;;;;21.37;68.46;99335.00;5035796;27;103178;-70
2022/07/02 07:30:19;;;;;;;1.38;0.93;;;;;;;21.61;68.01;99330.69;5035573;27;103181;-70
2022/07/02 07:32:47;;;;;;;1.80;0.90;;;;;;;21.85;66.94;99336.94;5035881;27;103669;-70
2022/07/02 07:35:16;;;;;;;1.42;1.10;;;;;;;21.80;66.85;99336.59;5033574;27;103305;-69
2022/07/02 07:37:57;;;;;;;3.20;1.00;;;;;;;21.77;66.30;99330.69;5032793;27;103336;-70
2022/07/02 07:40:25;;;;;;;1.92;0.98;;;;;;;21.84;66.96;99337.94;5031731;27;102982;-70
2022/07/02 07:42:53;;;;;;;2.08;0.90;;;;;;;22.19;65.37;99326.03;5030502;27;104104;-68
2022/07/02 07:45:21;;;;;;;1.90;0.80;;;;;;;22.74;63.51;99330.66;5032234;27;103656;-69
2022/07/02 07:47:49;;;;;;;1.98;1.02;;;;;;;22.82;63.09;99325.28;5029717;27;103210;-68
2022/07/02 07:50:18;;;;;;;0.70;0.70;;;;;;;22.92;63.06;99320.50;5031255;27;102594;-70
2022/07/02 07:52:47;;;;;;;1.40;0.70;;;;;;;22.90;60.34;99318.00;5013640;27;104152;-71
2022/07/02 07:55:15;;;;;;;0.98;0.82;;;;;;;22.71;59.25;99318.38;5017236;27;104402;-71
2022/07/02 07:57:43;;;;;;;2.30;0.80;;;;;;;22.50;60.79;99316.22;5032905;27;103216;-70
2022/07/02 08:00:12;;;;;;;1.27;0.80;;;;;;;23.28;60.52;99313.59;5034496;27;103508;-70
2022/07/02 08:02:40;;;;;;;1.50;0.60;;;;;;;24.02;55.80;99321.06;5022536;27;102659;-71
2022/07/02 08:05:09;;;;;;;0.93;0.60;;;;;;;23.87;55.28;99319.31;5024520;27;103448;-71
2022/07/02 08:07:39;;;;;;;1.40;0.50;;;;;;;23.97;52.10;99311.84;5030896;27;103209;-71
2022/07/02 08:10:15;;;;;;;0.90;0.68;;;;;;;24.64;51.81;99310.88;5028143;27;102674;-71
2022/07/02 08:12:46;;;;;;;1.67;0.50;;;;;;;24.63;50.70;99303.78;5028548;27;103807;-71
2022/07/02 08:15:14;;;;;;;1.05;0.60;;;;;;;25.20;50.33;99300.41;5031203;27;103894;-71
2022/07/02 08:17:42;;;;;;;1.02;0.68;;;;;;;24.97;50.61;99294.28;5027590;27;104132;-71
2022/07/02 08:20:12;;;;;;;1.00;0.80;;;;;;;25.09;48.22;99298.19;5033299;27;103281;-72
2022/07/02 08:22:43;;;;;;;1.17;0.70;;;;;;;25.35;49.66;99304.75;5030240;27;103763;-71
2022/07/02 08:25:10;;;;;;;0.90;0.80;;;;;;;25.69;47.91;99290.59;5015150;27;104187;-71
2022/07/02 08:27:38;;;;;;;0.80;0.50;;;;;;;25.76;46.46;99291.50;5040004;27;103187;-71
2022/07/02 08:30:07;;;;;;;0.77;0.60;;;;;;;25.97;45.42;99282.53;5032582;27;103662;-71
2022/07/02 08:32:35;;;;;;;1.10;0.50;;;;;;;25.31;46.23;99287.25;5036496;27;102772;-71
2022/07/02 08:35:04;;;;;;;1.58;0.60;;;;;;;26.41;46.75;99279.59;5032597;27;104153;-71
2022/07/02 08:37:32;;;;;;;0.80;0.50;;;;;;;26.90;43.89;99291.16;5029216;27;103116;-71
2022/07/02 08:40:02;;;;;;;0.50;0.50;;;;;;;26.25;43.87;99279.84;5031539;27;102685;-72
2022/07/02 08:42:31;;;;;;;2.33;0.60;;;;;;;26.69;43.09;99280.38;5026579;27;104152;-72
2022/07/02 08:45:02;;;;;;;0.77;0.43;;;;;;;27.41;42.99;99269.91;5032229;27;103871;-72
2022/07/02 08:47:31;;;;;;;2.40;0.52;;;;;;;27.72;42.58;99274.78;5030378;27;103311;-72
2022/07/02 08:50:00;;;;;;;0.70;0.60;;;;;;;27.63;43.24;99271.41;5022760;27;104055;-72
2022/07/02 08:52:30;;;;;;;1.40;0.43;;;;;;;28.05;43.02;99263.94;5032579;27;102624;-72
2022/07/02 08:54:58;;;;;;;0.53;0.50;;;;;;;28.16;43.43;99266.88;5026050;27;103274;-72
2022/07/02 08:57:49;;;;;;;1.98;0.60;;;;;;;28.63;41.05;99262.25;5029761;27;103200;-72
2022/07/02 09:00:22;;;;;;;0.60;0.50;;;;;;;29.12;42.40;99257.06;5033607;27;103074;-73
2022/07/02 09:02:58;;;;;;;1.50;0.60;;;;;;;28.40;42.37;99250.97;5033846;27;102898;-74
2022/07/02 09:05:28;;;;;;;1.30;0.70;;;;;;;28.30;41.07;99253.28;5031267;27;103477;-74
2022/07/02 09:07:57;;;;;;;0.63;0.63;;;;;;;28.27;39.42;99249.09;5028586;27;102971;-74
2022/07/02 09:10:27;;;;;;;1.23;0.50;;;;;;;28.64;38.51;99244.88;5027780;27;102832;-74
2022/07/02 09:12:56;;;;;;;0.52;0.43;;;;;;;28.02;39.56;99251.59;5013184;27;103054;-74
2022/07/02 09:15:25;;;;;;;1.15;0.50;;;;;;;28.58;39.34;99245.69;5031871;27;103734;-74
2022/07/02 09:17:54;;;;;;;0.60;0.57;;;;;;;28.54;39.68;99241.75;5034252;27;103265;-75
2022/07/02 09:20:23;;;;;;;1.98;0.50;;;;;;;28.83;40.40;99235.81;5028430;27;102910;-73
2022/07/02 09:22:53;;;;;;;1.20;0.70;;;;;;;29.37;41.19;99220.94;5035193;27;102762;-74
2022/07/02 09:25:22;;;;;;;1.23;0.60;;;;;;;28.39;39.37;99222.97;5014473;27;104267;-77
2022/07/02 09:28:01;;;;;;;0.90;0.53;;;;;;;29.68;39.10;99218.22;5038669;27;103457;-77
2022/07/02 09:30:30;;;;;;;0.70;0.50;;;;;;;29.98;39.25;99208.38;5039363;27;103290;-78
2022/07/02 09:35:40;;;;;;;0.80;0.50;;;;;;;29.93;40.45;99216.38;5034662;27;103022;-77
2022/07/02 09:38:10;;;;;;;1.02;0.50;;;;;;;30.08;40.40;99216.88;5031508;27;103515;-78
2022/07/02 09:40:38;;;;;;;1.17;0.60;;;;;;;29.10;42.10;99226.53;5028112;27;103800;-78
2022/07/02 09:43:07;;;;;;;0.70;0.60;;;;;;;30.09;40.88;99223.97;5026462;27;103385;-78
2022/07/02 09:45:35;;;;;;;0.90;0.50;;;;;;;29.55;38.15;99218.34;5024703;27;103282;-75
2022/07/02 09:48:04;;;;;;;3.28;0.70;;;;;;;29.08;38.16;99228.59;5019618;27;103417;-79
2022/07/02 09:50:39;;;;;;;1.27;0.65;;;;;;;29.31;39.63;99234.38;5029131;27;102894;-78
2022/07/02 09:53:12;;;;;;;1.65;0.50;;;;;;;29.47;38.51;99226.75;5011435;27;104410;-74
2022/07/02 09:55:40;;;;;;;1.23;0.50;;;;;;;29.97;38.37;99223.06;5030055;27;104182;-73
2022/07/02 09:58:09;;;;;;;1.43;0.60;;;;;;;29.31;38.08;99237.09;5030063;27;103242;-78
2022/07/02 10:00:45;;;;;;;1.25;0.52;;;;;;;29.85;36.57;99230.28;5012985;27;103360;-76
2022/07/02 10:03:12;;;;;;;1.25;0.60;;;;;;;29.86;38.75;99226.50;5032471;27;103747;-76
2022/07/02 10:05:41;;;;;;;2.13;0.50;;;;;;;30.21;36.21;99219.47;5028392;27;103463;-76
2022/07/02 10:08:10;;;;;;;1.60;0.60;;;;;;;30.64;35.76;99224.94;5028097;27;103308;-73
2022/07/02 10:10:39;;;;;;;1.60;0.80;;;;;;;30.60;37.16;99233.81;5029175;27;102713;-75
2022/07/02 10:13:09;;;;;;;0.63;0.60;;;;;;;30.52;38.11;99215.84;5028843;27;103951;-75
2022/07/02 10:15:41;;;;;;;17.80;6.03;;;;;;;30.64;37.50;99224.94;5012176;27;104400;-75
2022/07/02 10:18:09;;;;;;;15.07;5.43;;;;;;;30.84;35.42;99214.63;5030211;27;103236;-77
2022/07/02 10:20:41;;;;;;;7.32;2.00;;;;;;;31.26;36.66;99206.53;5033012;27;103906;-75
2022/07/02 10:23:09;;;;;;;3.50;1.52;;;;;;;29.39;34.66;99210.69;5031436;27;102811;-75
2022/07/02 10:25:37;;;;;;;7.72;2.38;;;;;;;29.77;37.58;99200.56;5032240;27;103945;-76
2022/07/02 10:28:05;;;;;;;2.60;1.00;;;;;;;29.93;38.80;99189.16;5030203;27;103410;-75
2022/07/02 10:30:35;;;;;;;4.18;1.58;;;;;;;30.04;36.06;99201.19;5030058;27;102962;-75
2022/07/02 10:33:10;;;;;;;2.10;0.60;;;;;;;29.08;36.58;99190.53;5031397;27;102837;-75
2022/07/02 10:35:39;;;;;;;2.30;1.40;;;;;;;29.82;37.51;99185.25;5009784;27;104259;-73
2022/07/02 10:38:07;;;;;;;1.20;0.70;;;;;;;29.53;35.33;99187.78;5012024;27;104186;-75
2022/07/02 10:40:46;;;;;;;1.00;0.70;;;;;;;30.94;35.97;99181.38;5035593;27;103037;-75
2022/07/02 10:43:16;;;;;;;2.83;1.50;;;;;;;30.52;36.47;99191.28;5024977;27;102777;-69
2022/07/02 10:45:45;;;;;;;2.00;0.73;;;;;;;30.73;36.22;99184.56;5026525;27;104161;-72
2022/07/02 10:48:14;;;;;;;2.87;1.87;;;;;;;30.69;36.04;99184.19;5031854;27;103057;-70
2022/07/02 10:50:46;;;;;;;1.43;0.90;;;;;;;30.52;35.26;99182.28;5031484;27;102672;-78
2022/07/02 10:53:17;;;;;;;1.60;0.98;;;;;;;28.58;36.03;99178.59;5032482;27;103105;-74
2022/07/02 10:55:56;;;;;;;1.60;0.77;;;;;;;29.61;35.45;99172.03;5034906;27;103855;-72
2022/07/02 10:58:25;;;;;;;8.38;7.57;;;;;;;30.50;37.04;99168.91;5029184;27;103224;-74
2022/07/02 11:00:55;;;;;;;2.28;0.88;;;;;;;30.43;36.89;99176.28;5027489;27;102862;-74
2022/07/02 11:03:24;;;;;;;1.30;0.68;;;;;;;30.37;35.42;99169.88;5030851;27;102856;-74
2022/07/02 11:05:56;;;;;;;1.52;0.90;;;;;;;29.92;33.14;99176.59;5029731;27;104532;-74
2022/07/02 11:08:46;;;;;;;1.25;0.80;;;;;;;29.82;34.33;99165.38;5025031;27;102980;-74
2022/07/02 11:11:17;;;;;;;1.57;0.97;;;;;;;30.31;33.57;99159.84;5028564;27;102883;-73
2022/07/02 11:13:48;;;;;;;1.10;0.90;;;;;;;30.74;36.05;99158.94;5027612;27;103746;-73
2022/07/02 11:16:23;;;;;;;1.52;0.60;;;;;;;30.03;34.03;99162.25;5027358;27;104096;-74
2022/07/02 11:18:52;;;;;;;1.43;0.63;;;;;;;29.84;33.96;99169.53;5029432;27;103228;-74
2022/07/02 11:21:21;;;;;;;0.95;0.68;;;;;;;30.60;34.36;99160.19;5026971;27;102799;-74
2022/07/02 11:23:50;;;;;;;1.80;0.90;;;;;;;30.13;33.89;99154.38;5027115;27;103141;-74
2022/07/02 11:26:20;;;;;;;1.60;0.68;;;;;;;30.32;33.18;99164.22;5025318;27;103310;-74
2022/07/02 11:28:48;;;;;;;2.05;0.70;;;;;;;29.92;34.03;99154.81;5025924;27;104544;-73
2022/07/02 11:31:17;;;;;;;1.88;0.82;;;;;;;29.80;34.07;99145.69;5029228;27;102749;-73
2022/07/02 11:33:51;;;;;;;1.80;1.50;;;;;;;28.13;35.62;99147.78;5026351;27;103231;-71
2022/07/02 11:36:26;;;;;;;1.40;0.80;;;;;;;30.10;34.53;99141.22;5025674;27;103163;-75
2022/07/02 11:38:54;;;;;;;1.77;0.60;;;;;;;31.02;32.48;99139.31;5024461;27;103284;-74
2022/07/02 11:41:24;;;;;;;1.02;0.55;;;;;;;29.36;33.25;99134.94;5027634;27;102829;-75